Time;durP1;ratioP1;P1;durP2;ratioP2;P2;SDS_P1;SDS_P2;PMS_P1;PMS_P2;Temp;Humidity;BMP_temperature;BMP_pressure;BME280_temperature;BME280_humidity;BME280_pressure;Samples;Min_cycle;Max_cycle;Signal;HPM_P1;HPM_P2
2023/01/12 00:37:35;;;;;;;18.90;8.50;;;;;;;-7.21;75.52;101689.95;105622;1284;613575;-66
2023/01/12 00:40:03;;;;;;;18.50;8.10;;;;;;;-6.56;73.69;101685.30;107191;1265;112337;-67
2023/01/12 00:45:23;;;;;;;19.40;8.50;;;;;;;-6.51;72.59;101684.88;107387;1265;73370;-65
2023/01/12 00:47:52;;;;;;;13.90;7.00;;;;;;;-6.47;72.19;101680.10;107351;1266;75129;-65
2023/01/12 00:50:19;;;;;;;13.30;6.70;;;;;;;-6.42;71.85;101681.41;107387;1266;73572;-66
2023/01/12 00:52:46;;;;;;;14.30;7.00;;;;;;;-6.41;71.52;101680.42;107375;1266;59154;-67
2023/01/12 00:55:13;;;;;;;17.80;9.00;;;;;;;-6.41;71.20;101675.61;107367;1265;62586;-66
2023/01/12 00:57:42;;;;;;;15.20;7.50;;;;;;;-6.41;70.95;101679.93;107382;1266;72284;-65
2023/01/12 01:00:10;;;;;;;17.10;8.00;;;;;;;-6.38;70.72;101676.77;107895;1256;73434;-65
2023/01/12 01:02:37;;;;;;;17.40;7.20;;;;;;;-6.29;70.46;101683.56;107885;1256;74462;-66
2023/01/12 01:05:05;;;;;;;14.30;6.00;;;;;;;-6.18;70.41;101677.16;107828;1257;59257;-67
2023/01/12 01:07:32;;;;;;;13.20;6.40;;;;;;;-6.06;70.33;101673.76;107875;1256;62577;-65
2023/01/12 01:09:59;;;;;;;13.10;7.20;;;;;;;-5.94;70.15;101678.14;108106;1254;74221;-67
2023/01/12 01:12:26;;;;;;;15.40;7.40;;;;;;;-5.85;70.11;101676.77;108119;1256;73732;-66
2023/01/12 01:14:53;;;;;;;18.90;6.90;;;;;;;-5.76;70.02;101678.95;108138;1257;73545;-66
2023/01/12 01:17:20;;;;;;;13.60;6.50;;;;;;;-5.66;69.89;101679.73;108158;1254;60362;-65
2023/01/12 01:19:47;;;;;;;12.30;6.00;;;;;;;-5.58;69.66;101678.41;108253;1254;62461;-66
2023/01/12 01:22:14;;;;;;;12.10;6.30;;;;;;;-5.49;69.57;101685.92;108127;1256;74466;-66
2023/01/12 01:24:41;;;;;;;13.10;6.50;;;;;;;-5.37;69.75;101690.77;108140;1256;73513;-65
2023/01/12 01:27:09;;;;;;;20.80;7.70;;;;;;;-5.22;69.55;101689.73;107988;1257;74042;-66
2023/01/12 01:29:36;;;;;;;14.70;7.80;;;;;;;-5.08;69.53;101687.80;107924;1256;62400;-65
2023/01/12 01:32:03;;;;;;;17.90;8.50;;;;;;;-4.94;69.33;101689.11;108032;1256;62744;-65
2023/01/12 01:34:30;;;;;;;14.70;8.00;;;;;;;-4.82;69.12;101690.39;107994;1256;72746;-66
2023/01/12 01:36:58;;;;;;;14.00;7.40;;;;;;;-4.72;68.94;101697.67;107978;1256;72845;-66
2023/01/12 01:39:25;;;;;;;15.90;7.90;;;;;;;-4.62;68.65;101699.31;108027;1259;74760;-65
2023/01/12 01:41:53;;;;;;;14.00;7.60;;;;;;;-4.55;68.41;101703.40;107958;1256;62852;-66
2023/01/12 01:44:30;;;;;;;19.10;8.60;;;;;;;-4.50;68.08;101701.04;107983;1256;61335;-66
2023/01/12 01:47:05;;;;;;;16.80;9.10;;;;;;;-4.45;67.78;101706.40;107952;1256;73955;-67
2023/01/12 01:49:44;;;;;;;14.40;7.70;;;;;;;-4.41;67.66;101707.48;107885;1255;73513;-66
2023/01/12 01:52:28;;;;;;;15.70;7.90;;;;;;;-4.36;67.42;101704.52;107988;1257;74581;-66
2023/01/12 01:55:03;;;;;;;19.60;8.50;;;;;;;-4.31;67.27;101707.43;107987;1256;62140;-66
2023/01/12 01:57:32;;;;;;;18.80;8.40;;;;;;;-4.28;67.13;101704.16;107956;1256;62317;-64
2023/01/12 02:00:01;;;;;;;16.90;8.10;;;;;;;-4.25;67.05;101706.85;107919;1256;73256;-65
2023/01/12 02:02:31;;;;;;;14.00;8.30;;;;;;;-4.21;66.91;101709.70;107936;1261;71818;-65
2023/01/12 02:04:58;;;;;;;15.50;8.10;;;;;;;-4.22;66.78;101706.09;107764;1257;72586;-64
2023/01/12 02:07:25;;;;;;;18.40;8.30;;;;;;;-4.20;66.76;101706.16;107729;1256;61423;-67
2023/01/12 02:09:52;;;;;;;15.50;7.70;;;;;;;-4.15;66.82;101702.26;107789;1256;61343;-66
2023/01/12 02:17:54;;;;;;;15.00;7.50;;;;;;;-4.04;66.46;101707.34;107880;1256;73840;-66
2023/01/12 02:20:40;;;;;;;22.60;10.30;;;;;;;-3.98;66.52;101709.13;107943;1256;60220;-66
2023/01/12 02:23:29;;;;;;;16.80;9.30;;;;;;;-3.94;66.53;101705.66;107959;1256;60212;-65
2023/01/12 02:26:35;;;;;;;17.40;8.00;;;;;;;-3.91;66.42;101702.79;107970;1256;73568;-66
2023/01/12 02:29:29;;;;;;;14.20;7.40;;;;;;;-3.89;66.31;101700.16;108000;1256;71220;-65
2023/01/12 02:32:10;;;;;;;15.50;7.20;;;;;;;-3.87;66.27;101698.23;107970;1262;74767;-65
2023/01/12 02:35:00;;;;;;;13.60;6.90;;;;;;;-3.84;66.34;101685.65;107983;1257;62249;-65
2023/01/12 02:37:49;;;;;;;14.60;6.80;;;;;;;-3.81;66.31;101688.44;107764;1256;61086;-66
2023/01/12 02:40:29;;;;;;;13.40;6.60;;;;;;;-3.79;66.24;101684.80;107973;1256;73673;-66
2023/01/12 02:43:05;;;;;;;13.30;6.90;;;;;;;-3.78;66.28;101689.79;107996;1256;73440;-66
2023/01/12 02:45:41;;;;;;;12.80;6.40;;;;;;;-3.74;66.19;101694.11;108050;1257;75051;-65
2023/01/12 02:48:24;;;;;;;12.50;7.80;;;;;;;-3.70;66.23;101685.44;108029;1256;63914;-65
2023/01/12 02:51:16;;;;;;;15.20;7.90;;;;;;;-3.66;66.10;101680.83;108005;1256;62639;-65
2023/01/12 02:53:51;;;;;;;19.40;9.70;;;;;;;-3.62;66.24;101682.92;108001;1256;72943;-66
2023/01/12 02:56:22;;;;;;;21.70;10.00;;;;;;;-3.67;66.33;101682.21;107994;1256;74680;-66
2023/01/12 02:58:53;;;;;;;21.50;8.70;;;;;;;-3.52;66.39;101678.09;107958;1256;73032;-65
2023/01/12 03:01:20;;;;;;;19.40;8.20;;;;;;;-3.44;66.17;101669.90;107985;1256;62377;-65
2023/01/12 03:03:48;;;;;;;17.20;8.00;;;;;;;-3.37;66.18;101667.64;107726;1256;60751;-66
2023/01/12 03:06:16;;;;;;;12.70;6.90;;;;;;;-3.34;66.01;101665.67;107972;1261;75043;-65
2023/01/12 03:08:43;;;;;;;17.10;7.90;;;;;;;-3.33;65.96;101670.27;107762;1262;73407;-66
2023/01/12 03:11:17;;;;;;;19.50;7.30;;;;;;;-3.30;65.81;101666.52;107727;1256;74402;-66
2023/01/12 03:13:51;;;;;;;14.70;7.60;;;;;;;-3.26;65.90;101663.70;107981;1257;60197;-65
2023/01/12 03:16:20;;;;;;;12.10;6.60;;;;;;;-3.26;65.78;101664.75;107762;1256;62493;-65
2023/01/12 03:18:58;;;;;;;12.00;6.20;;;;;;;-3.30;65.84;101661.75;108054;1257;70945;-66
2023/01/12 03:21:37;;;;;;;11.00;5.70;;;;;;;-3.34;65.74;101663.09;108041;1257;70663;-65
2023/01/12 03:24:08;;;;;;;13.00;6.20;;;;;;;-3.42;65.80;101660.50;108020;1257;71988;-66
2023/01/12 03:26:38;;;;;;;10.90;5.50;;;;;;;-3.49;65.73;101651.88;107872;1256;62406;-65
2023/01/12 03:29:19;;;;;;;11.10;5.70;;;;;;;-3.56;65.84;101647.44;107969;1256;62199;-66
2023/01/12 03:31:47;;;;;;;11.30;5.60;;;;;;;-3.64;66.09;101646.59;107985;1259;75006;-65
2023/01/12 03:34:14;;;;;;;13.10;7.00;;;;;;;-3.70;66.28;101644.55;107761;1256;74933;-65
2023/01/12 03:36:52;;;;;;;9.60;5.70;;;;;;;-3.73;66.64;101642.16;107966;1257;74861;-65
2023/01/12 03:39:28;;;;;;;12.70;6.30;;;;;;;-3.73;66.74;101636.97;107783;1257;62874;-66
2023/01/12 03:41:58;;;;;;;12.30;6.20;;;;;;;-3.71;66.87;101636.45;107983;1256;61960;-66
2023/01/12 03:44:38;;;;;;;9.80;5.00;;;;;;;-3.76;67.13;101638.63;107996;1256;75195;-65
2023/01/12 03:47:10;;;;;;;13.10;6.10;;;;;;;-3.76;67.30;101630.95;107960;1256;74656;-67
2023/01/12 03:49:44;;;;;;;13.10;6.50;;;;;;;-3.77;67.60;101631.04;107978;1257;73474;-65
2023/01/12 03:52:11;;;;;;;12.70;6.00;;;;;;;-3.78;67.79;101629.23;107978;1257;59677;-65
2023/01/12 03:54:38;;;;;;;11.60;6.40;;;;;;;-3.73;68.03;101629.14;107983;1256;60652;-66
2023/01/12 03:57:06;;;;;;;11.20;6.40;;;;;;;-3.70;68.21;101626.97;107941;1256;74356;-65
2023/01/12 03:59:33;;;;;;;12.40;6.60;;;;;;;-3.71;68.18;101627.23;107882;1256;72822;-66
2023/01/12 04:02:01;;;;;;;12.60;6.40;;;;;;;-3.73;68.31;101625.65;107930;1257;73121;-64
2023/01/12 04:04:29;;;;;;;11.80;6.20;;;;;;;-3.71;68.39;101626.50;107982;1256;59632;-65
2023/01/12 04:06:56;;;;;;;14.10;6.10;;;;;;;-3.70;68.48;101625.04;107945;1256;59605;-66
2023/01/12 04:09:24;;;;;;;16.90;6.60;;;;;;;-3.72;68.52;101631.66;108002;1256;73715;-65
2023/01/12 04:12:10;;;;;;;11.40;6.40;;;;;;;-3.75;68.63;101633.81;107963;1256;73065;-66
2023/01/12 04:14:41;;;;;;;11.40;5.70;;;;;;;-3.77;68.81;101627.15;107986;1256;73604;-66
2023/01/12 04:17:10;;;;;;;11.20;5.90;;;;;;;-3.78;68.95;101625.54;108017;1257;60306;-66
2023/01/12 04:19:37;;;;;;;12.10;6.00;;;;;;;-3.81;69.18;101625.27;108010;1257;62343;-66
2023/01/12 04:24:56;;;;;;;13.50;6.40;;;;;;;-3.81;69.40;101614.70;107978;1257;74834;-67
2023/01/12 04:27:23;;;;;;;12.20;5.80;;;;;;;-3.79;69.61;101609.60;107989;1256;73310;-65
2023/01/12 04:29:50;;;;;;;12.10;5.80;;;;;;;-3.77;69.77;101605.39;107973;1256;59547;-66
2023/01/12 04:32:17;;;;;;;11.00;6.20;;;;;;;-3.76;69.91;101595.94;107879;1262;59737;-65
2023/01/12 04:34:45;;;;;;;10.70;5.60;;;;;;;-3.76;70.16;101591.10;108005;1256;72104;-66
2023/01/12 04:37:12;;;;;;;13.80;6.90;;;;;;;-3.76;70.32;101589.54;107962;1256;74565;-66
2023/01/12 04:39:39;;;;;;;10.70;6.30;;;;;;;-3.78;70.45;101584.84;107987;1256;73459;-65
2023/01/12 04:42:59;;;;;;;14.60;6.60;;;;;;;-3.80;70.67;101580.63;107974;1261;59940;-65
2023/01/12 04:44:53;;;;;;;12.40;6.10;;;;;;;-3.81;70.93;101580.39;107962;1257;61410;-65
2023/01/12 04:47:20;;;;;;;11.90;6.40;;;;;;;-3.82;71.18;101578.42;107960;1256;75104;-66
2023/01/12 04:49:47;;;;;;;13.40;6.70;;;;;;;-3.83;71.25;101577.75;107882;1257;73037;-66
2023/01/12 04:52:14;;;;;;;10.90;6.20;;;;;;;-3.81;71.46;101579.02;107965;1259;72665;-65
2023/01/12 04:54:41;;;;;;;14.00;7.30;;;;;;;-3.79;71.53;101581.29;107846;1260;60561;-66
2023/01/12 04:57:08;;;;;;;13.80;6.50;;;;;;;-3.77;71.59;101576.90;107932;1259;62949;-66
2023/01/12 04:59:35;;;;;;;14.00;7.00;;;;;;;-3.75;71.87;101574.68;108026;1256;73797;-66
2023/01/12 05:02:02;;;;;;;16.50;7.40;;;;;;;-3.75;71.86;101583.38;108012;1256;75140;-66
2023/01/12 05:04:29;;;;;;;16.30;8.40;;;;;;;-3.77;72.03;101585.09;108043;1261;71854;-66
2023/01/12 05:06:56;;;;;;;18.30;8.50;;;;;;;-3.74;72.13;101585.15;107967;1256;62054;-65
2023/01/12 05:12:09;;;;;;;14.00;7.10;;;;;;;-3.63;72.15;101578.04;108042;1256;74944;-66
2023/01/12 05:14:36;;;;;;;12.80;7.40;;;;;;;-3.60;72.15;101575.15;108025;1256;73804;-68
2023/01/12 05:17:04;;;;;;;12.90;7.40;;;;;;;-3.57;72.19;101580.94;108036;1257;73452;-67
2023/01/12 05:19:31;;;;;;;17.90;7.80;;;;;;;-3.58;72.21;101582.13;107946;1256;60677;-67
2023/01/12 05:21:58;;;;;;;15.10;8.30;;;;;;;-3.56;72.17;101585.81;107971;1256;61652;-68
2023/01/12 05:24:25;;;;;;;16.40;7.60;;;;;;;-3.51;72.32;101588.14;108022;1256;76173;-65
2023/01/12 05:26:52;;;;;;;12.90;6.80;;;;;;;-3.48;72.24;101586.10;107980;1261;71779;-67
2023/01/12 05:29:19;;;;;;;11.50;6.80;;;;;;;-3.47;72.26;101588.44;107987;1258;72875;-67
2023/01/12 05:31:46;;;;;;;16.70;8.10;;;;;;;-3.46;72.22;101586.46;107902;1261;62723;-66
2023/01/12 05:34:13;;;;;;;15.10;8.00;;;;;;;-3.45;72.16;101586.22;107989;1256;61353;-67
2023/01/12 05:36:40;;;;;;;14.20;7.50;;;;;;;-3.43;72.21;101582.23;108003;1260;73769;-67
2023/01/12 05:39:07;;;;;;;16.40;7.60;;;;;;;-3.41;72.29;101579.61;108037;1259;74955;-66
2023/01/12 05:41:34;;;;;;;12.70;6.20;;;;;;;-3.40;72.21;101578.27;107963;1257;72617;-67
2023/01/12 05:44:02;;;;;;;15.00;7.70;;;;;;;-3.37;72.31;101576.76;107957;1257;61565;-66
2023/01/12 05:46:30;;;;;;;17.60;7.70;;;;;;;-3.34;72.46;101578.08;107938;1256;61366;-66
2023/01/12 05:48:57;;;;;;;13.90;6.80;;;;;;;-3.32;72.34;101580.83;107970;1256;73169;-67
2023/01/12 05:51:25;;;;;;;16.50;7.70;;;;;;;-3.31;72.48;101583.83;107983;1260;74953;-67
2023/01/12 05:53:53;;;;;;;15.20;7.40;;;;;;;-3.27;72.44;101585.27;107995;1260;73450;-65
2023/01/12 05:56:27;;;;;;;17.40;8.20;;;;;;;-3.22;72.46;101579.23;107778;1262;60552;-67
2023/01/12 05:58:57;;;;;;;17.30;8.60;;;;;;;-3.20;72.44;101578.19;108022;1258;60870;-66
2023/01/12 06:01:25;;;;;;;17.60;8.90;;;;;;;-3.18;72.42;101582.80;107960;1262;74041;-66
2023/01/12 06:03:55;;;;;;;14.00;7.60;;;;;;;-3.13;72.36;101583.06;108011;1260;73234;-67
2023/01/12 06:06:24;;;;;;;15.80;8.70;;;;;;;-3.11;72.32;101583.88;108022;1256;73074;-67
2023/01/12 12:45:16;;;;;;;30.10;15.40;;;;;;;-0.17;71.95;101438.48;106011;1280;613455;-71
2023/01/12 12:48:11;;;;;;;30.70;15.60;;;;;;;0.46;69.39;101432.40;107334;1263;133156;-71
2023/01/12 12:50:39;;;;;;;28.60;14.30;;;;;;;0.43;68.68;101429.25;107646;1262;62645;-72
2023/01/12 12:53:11;;;;;;;30.80;15.70;;;;;;;0.38;68.13;101424.93;107796;1257;73598;-71
2023/01/12 12:55:38;;;;;;;28.90;14.70;;;;;;;0.31;67.66;101428.14;107683;1257;74098;-70
2023/01/12 12:58:29;;;;;;;25.50;13.10;;;;;;;0.27;67.32;101426.88;107651;1257;74975;-70
2023/01/12 13:01:16;;;;;;;30.40;15.00;;;;;;;0.19;66.94;101426.91;107818;1257;60042;-72
2023/01/12 13:03:53;;;;;;;25.00;11.40;;;;;;;0.08;66.53;101428.87;107836;1257;60608;-71
2023/01/12 13:06:30;;;;;;;31.50;15.20;;;;;;;-0.00;66.37;101430.52;107895;1257;74582;-72
2023/01/12 13:08:58;;;;;;;27.30;13.50;;;;;;;-0.14;66.09;101431.31;107815;1257;71473;-72
2023/01/12 13:11:47;;;;;;;27.20;13.50;;;;;;;-0.22;66.09;101429.65;107901;1257;71329;-72
2023/01/12 13:14:18;;;;;;;28.90;13.70;;;;;;;-0.33;66.04;101430.27;107771;1258;60990;-72
2023/01/12 13:16:50;;;;;;;26.30;13.50;;;;;;;-0.37;66.12;101430.59;107814;1257;60106;-72
2023/01/12 13:19:39;;;;;;;31.50;15.40;;;;;;;-0.42;65.93;101432.56;107891;1257;74040;-72
2023/01/12 13:22:46;;;;;;;34.60;15.60;;;;;;;-0.48;66.05;101439.90;107818;1257;73382;-71
2023/01/12 13:25:18;;;;;;;32.90;15.20;;;;;;;-0.46;66.30;101439.75;107783;1257;74003;-72
2023/01/12 13:28:00;;;;;;;30.80;15.10;;;;;;;-0.50;65.95;101438.15;107813;1257;60940;-72
2023/01/12 13:30:27;;;;;;;;;;;;;;;-0.57;65.98;101435.30;107809;1260;61098;-71
2023/01/12 13:32:54;;;;;;;34.10;15.10;;;;;;;-0.60;65.94;101431.29;107791;1262;73165;-72
2023/01/12 13:35:47;;;;;;;37.00;17.80;;;;;;;-0.60;66.13;101435.48;107810;1259;73150;-70
2023/01/12 13:38:18;;;;;;;39.20;17.20;;;;;;;-0.58;66.06;101436.02;107795;1260;73322;-72
2023/01/12 13:40:45;;;;;;;35.50;16.90;;;;;;;-0.55;66.22;101443.11;107836;1258;60194;-72
2023/01/12 13:43:28;;;;;;;39.40;17.20;;;;;;;-0.51;66.13;101445.75;107905;1259;59858;-71
2023/01/12 13:46:18;;;;;;;43.10;17.20;;;;;;;-0.50;65.99;101447.90;107949;1260;73578;-74
2023/01/12 13:48:47;;;;;;;38.10;16.90;;;;;;;-0.51;65.86;101448.86;107877;1260;71601;-71
2023/01/12 13:51:37;;;;;;;32.70;16.40;;;;;;;-0.51;66.08;101448.53;107842;1258;71352;-72
2023/01/12 13:54:14;;;;;;;33.80;15.30;;;;;;;-0.52;65.87;101449.52;108150;1256;61902;-71
2023/01/12 13:56:42;;;;;;;41.00;18.10;;;;;;;-0.53;65.94;101454.50;108050;1257;60823;-72
2023/01/12 13:59:16;;;;;;;36.30;17.00;;;;;;;-0.57;65.96;101454.50;108146;1256;75012;-71
2023/01/12 14:01:44;;;;;;;37.50;16.80;;;;;;;-0.59;65.83;101459.86;108108;1257;73066;-70
2023/01/12 14:04:16;;;;;;;31.50;15.80;;;;;;;-0.64;65.91;101461.40;108085;1255;71906;-72
2023/01/12 18:04:45;;;;;;;30.50;15.50;;;;;;;-2.24;75.46;101428.56;105729;1281;613180;-64
2023/01/12 18:07:12;;;;;;;33.10;14.40;;;;;;;-1.68;72.60;101429.16;107254;1266;149997;-65
2023/01/12 18:09:40;;;;;;;34.90;15.30;;;;;;;-1.70;71.98;101426.22;107864;1259;61974;-65
2023/01/12 18:12:09;;;;;;;27.10;13.50;;;;;;;-1.68;71.67;101425.31;107639;1259;74211;-65
2023/01/12 18:27:59;;;;;;;38.10;16.30;;;;;;;-1.60;70.68;101418.46;105826;1281;613627;-75
2023/01/12 18:30:26;;;;;;;33.50;16.80;;;;;;;-1.06;69.12;101423.48;107197;1264;215487;-75
2023/01/12 18:32:53;;;;;;;40.30;18.70;;;;;;;-1.06;68.88;101416.70;107344;1265;61616;-74
2023/01/12 18:35:21;;;;;;;45.90;22.10;;;;;;;-1.08;68.45;101417.98;107424;1266;72374;-74
2023/01/12 18:37:48;;;;;;;37.50;19.30;;;;;;;-1.10;68.08;101418.00;107350;1265;73039;-74
2023/01/12 18:40:15;;;;;;;46.00;21.10;;;;;;;-1.17;67.81;101417.13;107452;1266;71429;-74
2023/01/12 18:42:53;;;;;;;44.90;20.30;;;;;;;-1.23;67.61;101419.44;107406;1266;61727;-74
2023/01/12 18:45:20;;;;;;;43.30;20.40;;;;;;;-1.25;67.41;101415.99;108083;1254;60984;-74
2023/01/12 18:55:53;;;;;;;31.80;16.80;;;;;;;-1.24;66.87;101416.09;108096;1254;60825;-76
2023/01/12 18:58:26;;;;;;;32.50;15.70;;;;;;;-1.26;66.83;101413.33;108077;1254;59488;-75
2023/01/12 19:00:56;;;;;;;38.10;16.80;;;;;;;-1.27;66.56;101416.98;108025;1254;73267;-76
2023/01/12 19:03:23;;;;;;;31.20;13.40;;;;;;;-1.28;66.59;101415.48;108020;1254;74174;-75
2023/01/12 19:11:10;;;;;;;24.10;12.40;;;;;;;-1.31;66.29;101416.13;108125;1255;60260;-75
2023/01/12 19:19:09;;;;;;;25.40;11.20;;;;;;;-1.30;66.17;101405.23;108037;1256;70871;-73
2023/01/12 19:30:14;;;;;;;24.70;11.20;;;;;;;-1.37;66.16;101398.08;107941;1256;75023;-75
2023/01/12 19:32:42;;;;;;;26.00;13.10;;;;;;;-1.34;66.25;101400.52;107937;1256;74952;-75
2023/01/12 19:35:09;;;;;;;29.30;13.40;;;;;;;-1.32;66.07;101405.07;107974;1255;59940;-75
2023/01/12 19:37:39;;;;;;;28.20;12.00;;;;;;;-1.32;66.21;101407.83;108053;1255;61168;-75
2023/01/12 19:40:17;;;;;;;27.30;13.10;;;;;;;-1.33;65.91;101410.33;107963;1260;75321;-74
2023/01/12 19:45:30;;;;;;;33.30;15.90;;;;;;;-1.32;65.90;101416.44;107989;1256;73704;-74
2023/01/12 19:47:57;;;;;;;30.60;14.00;;;;;;;-1.31;65.98;101419.30;107979;1256;61103;-75
2023/01/12 19:50:24;;;;;;;25.40;12.60;;;;;;;-1.31;65.93;101421.67;107964;1256;60800;-76
2023/01/12 19:52:51;;;;;;;24.10;12.90;;;;;;;-1.28;65.74;101421.41;107975;1256;74952;-76
2023/01/12 19:55:18;;;;;;;34.70;15.30;;;;;;;-1.27;65.80;101423.09;108004;1255;74826;-78
2023/01/12 19:57:45;;;;;;;48.10;25.80;;;;;;;-1.29;65.81;101417.98;108057;1255;75263;-75
2023/01/12 20:00:14;;;;;;;46.10;23.60;;;;;;;-1.28;65.82;101412.31;108061;1256;61645;-75
2023/01/12 20:02:44;;;;;;;38.20;19.80;;;;;;;-1.27;65.62;101411.36;108034;1255;62512;-75
2023/01/12 20:05:11;;;;;;;38.40;20.10;;;;;;;-1.31;65.59;101407.51;108014;1256;72191;-75
2023/01/12 20:07:56;;;;;;;46.30;22.70;;;;;;;-1.34;65.51;101409.66;108034;1256;71872;-75
2023/01/12 20:10:23;;;;;;;39.90;20.90;;;;;;;-1.39;65.53;101411.32;108004;1259;73244;-76
2023/01/12 20:12:51;;;;;;;34.00;17.20;;;;;;;-1.40;65.59;101415.08;108051;1255;61940;-75
2023/01/12 20:15:19;;;;;;;26.70;14.40;;;;;;;-1.40;65.57;101417.80;107946;1255;62000;-76
2023/01/12 20:17:47;;;;;;;21.10;11.70;;;;;;;-1.40;65.68;101420.26;107785;1256;73132;-77
2023/01/12 20:20:15;;;;;;;22.00;12.40;;;;;;;-1.40;65.54;101423.04;108122;1256;73428;-76
2023/01/12 20:22:42;;;;;;;28.30;12.40;;;;;;;-1.44;65.52;101414.83;108004;1255;74460;-76
2023/01/12 20:25:13;;;;;;;31.40;13.40;;;;;;;-1.53;65.84;101408.46;108094;1256;62178;-75
2023/01/12 20:27:41;;;;;;;46.90;18.40;;;;;;;-1.52;66.06;101412.34;107931;1256;60207;-76
2023/01/12 20:30:09;;;;;;;51.30;20.50;;;;;;;-1.50;65.98;101413.04;108022;1256;71948;-74
2023/01/12 20:32:40;;;;;;;46.80;19.20;;;;;;;-1.50;65.97;101420.58;108083;1255;73780;-75
2023/01/12 20:35:08;;;;;;;51.20;17.90;;;;;;;-1.51;65.86;101425.73;108021;1256;74804;-75
2023/01/12 20:37:35;;;;;;;36.20;18.10;;;;;;;-1.52;65.91;101426.48;108035;1256;60987;-77
2023/01/12 20:40:03;;;;;;;31.20;15.90;;;;;;;-1.50;66.00;101430.29;108058;1255;62125;-75
2023/01/12 20:42:30;;;;;;;42.60;18.90;;;;;;;-1.49;65.86;101426.03;107971;1255;73095;-75
2023/01/12 20:44:58;;;;;;;56.60;22.70;;;;;;;-1.51;65.89;101421.48;108011;1256;73705;-76
2023/01/12 20:47:26;;;;;;;53.30;21.20;;;;;;;-1.52;65.78;101422.77;107960;1256;73830;-76
2023/01/12 20:49:54;;;;;;;37.20;19.00;;;;;;;-1.52;65.86;101421.05;107961;1256;62328;-76
2023/01/12 20:52:22;;;;;;;34.70;16.30;;;;;;;-1.51;66.00;101427.64;107756;1255;59543;-75
2023/01/12 20:54:49;;;;;;;35.10;16.90;;;;;;;-1.51;65.94;101428.30;108056;1259;74714;-75
2023/01/12 20:57:16;;;;;;;31.70;16.30;;;;;;;-1.52;65.97;101423.30;107941;1256;74843;-75
2023/01/12 20:59:43;;;;;;;35.30;17.60;;;;;;;-1.52;65.98;101420.38;107991;1259;73566;-76
2023/01/12 21:02:23;;;;;;;39.50;18.80;;;;;;;-1.52;66.03;101417.70;108059;1256;61735;-77
2023/01/12 21:04:51;;;;;;;35.60;18.10;;;;;;;-1.49;66.09;101416.77;107950;1256;60481;-76
2023/01/12 21:07:18;;;;;;;36.20;17.00;;;;;;;-1.48;65.87;101416.09;107961;1255;74180;-77
2023/01/12 21:09:47;;;;;;;40.90;17.90;;;;;;;-1.47;66.06;101413.60;108047;1255;73839;-76
2023/01/12 21:12:15;;;;;;;34.50;18.00;;;;;;;-1.49;65.90;101414.08;107992;1256;74390;-76
2023/01/12 21:14:42;;;;;;;38.90;16.80;;;;;;;-1.50;65.91;101411.39;108014;1256;62913;-77
2023/01/12 21:17:09;;;;;;;29.50;15.00;;;;;;;-1.50;66.09;101411.23;108027;1256;62320;-75
2023/01/12 21:19:36;;;;;;;34.90;16.00;;;;;;;-1.48;66.20;101407.07;108019;1256;73452;-76
2023/01/12 21:22:03;;;;;;;37.20;15.40;;;;;;;-1.46;66.06;101412.06;108022;1257;75105;-76
2023/01/12 21:24:31;;;;;;;30.70;13.90;;;;;;;-1.43;66.08;101420.17;107760;1259;71664;-76
2023/01/12 21:26:58;;;;;;;31.00;13.80;;;;;;;-1.41;66.12;101420.11;107987;1256;60726;-75
2023/01/12 21:29:25;;;;;;;34.40;13.80;;;;;;;-1.42;65.92;101416.54;107781;1256;62071;-75
2023/01/12 21:31:52;;;;;;;37.70;13.10;;;;;;;-1.41;65.94;101421.39;108024;1256;74719;-76
2023/01/12 21:34:19;;;;;;;31.10;13.10;;;;;;;-1.43;65.93;101419.59;108089;1256;74503;-76
2023/01/12 21:36:47;;;;;;;26.50;13.10;;;;;;;-1.45;65.91;101421.93;108070;1255;74781;-75
2023/01/12 21:39:15;;;;;;;30.50;12.50;;;;;;;-1.46;66.12;101421.79;108128;1255;63380;-75
2023/01/12 21:44:27;;;;;;;24.70;10.90;;;;;;;-1.43;66.07;101425.70;108164;1255;72221;-74
2023/01/12 21:46:54;;;;;;;21.50;11.20;;;;;;;-1.44;66.10;101429.36;108007;1255;72695;-75
2023/01/12 21:49:21;;;;;;;21.30;10.70;;;;;;;-1.46;66.09;101423.78;108118;1258;75251;-75
2023/01/12 21:51:49;;;;;;;23.50;11.80;;;;;;;-1.46;66.15;101422.58;107971;1256;64002;-76
2023/01/12 21:54:16;;;;;;;26.80;12.00;;;;;;;-1.46;66.09;101415.77;108004;1255;61420;-76
2023/01/12 21:56:43;;;;;;;22.00;12.10;;;;;;;-1.46;66.10;101412.69;108056;1256;74992;-77
2023/01/12 21:59:11;;;;;;;24.00;12.30;;;;;;;-1.45;66.14;101408.14;108007;1256;70815;-75
2023/01/12 22:01:38;;;;;;;22.30;11.90;;;;;;;-1.44;66.13;101403.34;107997;1255;72936;-75
2023/01/12 22:04:06;;;;;;;23.20;11.50;;;;;;;-1.44;66.09;101401.73;108139;1254;59934;-75
2023/01/12 22:06:33;;;;;;;26.40;12.50;;;;;;;-1.43;66.19;101406.35;107959;1256;61540;-75
2023/01/12 22:09:00;;;;;;;24.70;12.90;;;;;;;-1.43;66.29;101402.68;108046;1256;73721;-76
2023/01/12 22:11:27;;;;;;;25.90;12.40;;;;;;;-1.43;66.22;101402.10;108001;1258;73717;-75
2023/01/12 22:13:54;;;;;;;25.10;13.50;;;;;;;-1.43;66.28;101404.73;107999;1256;72952;-75
2023/01/12 22:16:21;;;;;;;27.90;13.90;;;;;;;-1.44;66.23;101399.77;108008;1256;61841;-76
2023/01/12 22:18:48;;;;;;;28.50;13.90;;;;;;;-1.44;66.15;101395.11;108064;1255;61092;-75
2023/01/12 22:21:16;;;;;;;33.30;13.50;;;;;;;-1.42;66.43;101390.99;108001;1256;73634;-75
2023/01/12 22:23:44;;;;;;;22.90;12.80;;;;;;;-1.37;66.27;101394.35;107831;1255;73723;-75
2023/01/12 22:26:12;;;;;;;28.10;13.10;;;;;;;-1.32;66.28;101391.09;108006;1256;73084;-75
2023/01/12 22:28:40;;;;;;;26.50;12.30;;;;;;;-1.31;66.30;101389.39;108000;1257;60683;-74
2023/01/12 22:31:12;;;;;;;27.70;12.00;;;;;;;-1.32;66.28;101388.27;108024;1256;61441;-75
2023/01/12 22:33:43;;;;;;;25.00;12.50;;;;;;;-1.34;66.04;101388.34;108032;1259;72989;-75
2023/01/12 22:36:10;;;;;;;28.30;13.40;;;;;;;-1.35;66.25;101384.37;107986;1256;72422;-75
2023/01/12 22:38:37;;;;;;;27.80;13.30;;;;;;;-1.25;66.15;101384.20;108056;1259;74334;-74
2023/01/12 22:41:08;;;;;;;24.20;13.20;;;;;;;-0.69;65.03;101380.62;108008;1256;61369;-75
2023/01/12 22:43:41;;;;;;;25.90;12.80;;;;;;;-0.57;64.53;101380.85;108048;1255;61196;-76
2023/01/12 22:46:24;;;;;;;26.30;12.60;;;;;;;-0.51;64.24;101379.73;108107;1255;76077;-75
2023/01/12 22:48:56;;;;;;;22.10;12.80;;;;;;;-0.46;63.94;101381.48;108093;1256;73486;-74
2023/01/12 22:51:24;;;;;;;27.50;11.70;;;;;;;-0.39;63.76;101380.92;108045;1256;72866;-75
2023/01/12 22:53:52;;;;;;;20.70;11.40;;;;;;;-0.27;63.61;101381.50;108117;1256;61218;-78
2023/01/12 22:56:19;;;;;;;25.30;12.60;;;;;;;-0.32;63.53;101380.88;108235;1255;60355;-74
2023/01/12 22:58:48;;;;;;;24.50;12.80;;;;;;;-0.34;63.42;101381.78;108007;1255;74990;-77
2023/01/12 23:01:15;;;;;;;26.80;12.60;;;;;;;-0.38;63.41;101384.50;108078;1255;72770;-75
2023/01/12 23:03:42;;;;;;;22.70;12.00;;;;;;;-0.33;63.24;101379.63;108007;1256;73590;-77
2023/01/12 23:06:11;;;;;;;23.10;11.70;;;;;;;-0.32;63.13;101378.20;108017;1256;60454;-75
2023/01/12 23:08:39;;;;;;;22.30;11.70;;;;;;;-0.31;63.25;101377.11;108077;1256;60346;-75
2023/01/12 23:11:17;;;;;;;22.70;11.40;;;;;;;-0.30;63.07;101372.05;107983;1256;74579;-76
2023/01/12 23:13:45;;;;;;;21.90;12.00;;;;;;;-0.28;63.05;101374.68;108069;1256;71987;-78
2023/01/12 23:16:14;;;;;;;24.90;10.90;;;;;;;-0.19;63.08;101374.54;108093;1256;72495;-75
2023/01/12 23:18:42;;;;;;;26.00;12.70;;;;;;;-0.13;62.61;101379.35;107875;1255;60313;-77
2023/01/12 23:21:12;;;;;;;26.90;13.10;;;;;;;-0.13;62.59;101380.05;108139;1256;60327;-75
2023/01/12 23:23:44;;;;;;;25.90;13.20;;;;;;;-0.22;62.92;101382.92;108244;1255;75820;-75
2023/01/12 23:26:13;;;;;;;;;;;;;;;-0.24;63.03;101378.95;108044;1256;71689;-76
2023/01/12 23:28:44;;;;;;;27.20;13.00;;;;;;;-0.21;63.27;101375.14;108073;1256;72989;-75
2023/01/12 23:31:13;;;;;;;26.90;12.40;;;;;;;-0.12;62.92;101370.67;108042;1256;59724;-74